createdAt,value
2017-10-14T00:00:15.988Z,78.30
2017-10-14T00:02:42.177Z,78.40
2017-10-14T00:05:08.754Z,78.60
2017-10-14T00:07:34.952Z,78.60
2017-10-14T00:10:01.155Z,78.20
2017-10-14T00:12:28.051Z,78.30
2017-10-14T00:14:54.291Z,78.30
2017-10-14T00:17:20.523Z,78.70
2017-10-14T00:19:53.450Z,78.60
2017-10-14T00:22:20.043Z,78.70
2017-10-14T00:24:46.237Z,78.70
2017-10-14T00:27:12.487Z,78.70
2017-10-14T00:29:38.683Z,78.60
2017-10-14T00:32:05.253Z,79.00
2017-10-14T00:34:31.515Z,79.00
2017-10-14T00:36:57.700Z,78.80
2017-10-14T00:39:23.931Z,78.90
2017-10-14T00:41:50.178Z,79.00
2017-10-14T00:44:17.310Z,79.10
2017-10-14T00:46:43.578Z,79.30
2017-10-14T00:49:09.821Z,79.00
2017-10-14T00:51:36.083Z,78.40
2017-10-14T00:54:03.231Z,78.60
2017-10-14T00:56:29.461Z,78.40
2017-10-14T00:58:55.720Z,78.50
2017-10-14T01:01:21.937Z,78.50
2017-10-14T01:03:50.215Z,78.60
2017-10-14T01:06:16.457Z,78.70
2017-10-14T01:08:42.697Z,78.40
2017-10-14T01:11:09.808Z,78.30
2017-10-14T01:13:36.748Z,78.10
2017-10-14T01:16:03.021Z,78.00
2017-10-14T01:18:29.279Z,78.10
2017-10-14T01:20:55.518Z,78.30
2017-10-14T01:23:21.798Z,78.60
2017-10-14T01:25:48.032Z,78.90
2017-10-14T01:28:14.312Z,79.00
2017-10-14T01:30:40.552Z,79.50
2017-10-14T01:33:06.802Z,79.40
2017-10-14T01:35:33.055Z,79.60
2017-10-14T01:37:59.313Z,79.50
2017-10-14T01:40:26.246Z,79.40
2017-10-14T01:42:52.856Z,78.90
2017-10-14T01:45:19.153Z,78.90
2017-10-14T01:47:45.386Z,79.00
2017-10-14T01:50:11.604Z,79.10
2017-10-14T01:52:37.842Z,78.70
2017-10-14T01:55:04.068Z,78.90
2017-10-14T01:57:30.311Z,78.80
2017-10-14T01:59:56.548Z,79.10
2017-10-14T02:02:22.805Z,79.10
2017-10-14T02:04:49.052Z,79.30
2017-10-14T02:07:15.283Z,79.30
2017-10-14T02:09:41.518Z,79.00
2017-10-14T02:12:07.724Z,78.40
2017-10-14T02:14:33.983Z,78.10
2017-10-14T02:17:00.172Z,78.10
2017-10-14T02:19:26.756Z,78.60
2017-10-14T02:21:52.975Z,78.60
2017-10-14T02:24:19.167Z,78.60
2017-10-14T02:26:45.768Z,79.10
2017-10-14T02:29:11.947Z,79.10
2017-10-14T02:31:38.612Z,79.00
2017-10-14T02:34:05.065Z,79.10
2017-10-14T02:36:31.255Z,78.80
2017-10-14T02:38:57.487Z,78.50
2017-10-14T02:41:23.683Z,78.20
2017-10-14T02:43:49.904Z,78.70
2017-10-14T02:46:16.136Z,78.90
2017-10-14T02:48:42.728Z,78.70
2017-10-14T02:51:08.924Z,78.70
2017-10-14T02:53:35.162Z,78.80
2017-10-14T02:56:01.373Z,78.90
2017-10-14T02:58:27.560Z,79.00
2017-10-14T03:00:53.770Z,78.80
2017-10-14T03:03:19.974Z,79.00
2017-10-14T03:05:46.188Z,78.70
2017-10-14T03:08:12.379Z,78.90
2017-10-14T03:10:38.609Z,78.80
2017-10-14T03:13:04.821Z,78.60
2017-10-14T03:15:31.049Z,78.70
2017-10-14T03:17:57.265Z,78.60
2017-10-14T03:20:23.447Z,78.50
2017-10-14T03:22:50.014Z,78.20
2017-10-14T03:25:16.209Z,78.20
2017-10-14T03:27:42.440Z,78.30
2017-10-14T03:30:08.679Z,78.30
2017-10-14T03:32:34.939Z,78.40
2017-10-14T03:35:01.181Z,78.40
2017-10-14T03:37:27.422Z,78.50
2017-10-14T03:39:53.640Z,78.30
2017-10-14T03:42:19.832Z,78.10
2017-10-14T03:44:46.057Z,78.30
2017-10-14T03:47:12.250Z,78.40
2017-10-14T03:49:38.446Z,78.40
2017-10-14T03:52:04.646Z,78.40
2017-10-14T03:54:30.866Z,78.40
2017-10-14T03:56:57.055Z,78.30
2017-10-14T03:59:23.300Z,78.30
2017-10-14T04:01:49.888Z,78.70
2017-10-14T04:04:16.112Z,78.70
2017-10-14T04:06:42.361Z,78.80
2017-10-14T04:09:08.540Z,78.80
2017-10-14T04:11:34.751Z,78.50
2017-10-14T04:14:01.365Z,78.60
2017-10-14T04:16:27.583Z,78.60
2017-10-14T04:18:53.766Z,78.50
2017-10-14T04:21:19.983Z,78.40
2017-10-14T04:23:46.172Z,78.40
2017-10-14T04:26:12.413Z,78.70
2017-10-14T04:28:38.594Z,78.60
2017-10-14T04:31:04.819Z,78.30
2017-10-14T04:33:31.057Z,78.50
2017-10-14T04:35:57.259Z,78.30
2017-10-14T04:38:23.488Z,78.80
2017-10-14T04:40:49.698Z,78.50
2017-10-14T04:43:16.260Z,78.80
2017-10-14T04:45:42.481Z,78.80
2017-10-14T04:48:08.713Z,78.50
2017-10-14T04:50:34.918Z,78.70
2017-10-14T04:53:01.130Z,78.80
2017-10-14T04:55:27.341Z,79.20
2017-10-14T04:57:53.548Z,79.50
2017-10-14T05:00:19.788Z,79.30
2017-10-14T05:02:46.023Z,79.40
2017-10-14T05:05:12.226Z,79.60
2017-10-14T05:07:38.420Z,79.30
2017-10-14T05:10:04.633Z,79.20
2017-10-14T05:12:31.227Z,79.20
2017-10-14T05:14:57.471Z,79.20
2017-10-14T05:17:23.716Z,79.20
2017-10-14T05:19:49.919Z,80.40
2017-10-14T05:22:16.163Z,80.70
2017-10-14T05:24:42.380Z,80.80
2017-10-14T05:27:08.580Z,80.70
2017-10-14T05:29:34.774Z,80.40
2017-10-14T05:32:00.991Z,80.20
2017-10-14T05:34:27.207Z,79.90
2017-10-14T05:36:53.419Z,79.80
2017-10-14T05:39:19.628Z,79.20
2017-10-14T05:41:45.840Z,79.00
2017-10-14T05:44:12.051Z,78.70
2017-10-14T05:46:38.270Z,78.80
2017-10-14T05:49:04.486Z,79.70
2017-10-14T05:51:31.081Z,79.90
2017-10-14T05:53:57.308Z,79.90
2017-10-14T05:56:23.544Z,79.70
2017-10-14T05:58:49.764Z,79.50
2017-10-14T06:01:16.000Z,79.00
2017-10-14T06:03:42.207Z,79.20
2017-10-14T06:06:08.452Z,79.00
2017-10-14T06:08:34.675Z,79.00
2017-10-14T06:11:00.906Z,79.00
2017-10-14T06:13:27.106Z,79.00
2017-10-14T06:15:53.344Z,79.00
2017-10-14T06:18:19.587Z,78.50
2017-10-14T06:20:45.799Z,78.50
2017-10-14T06:23:12.017Z,78.80
2017-10-14T06:25:38.237Z,79.00
2017-10-14T06:28:04.460Z,78.70
2017-10-14T06:30:30.681Z,78.90
2017-10-14T06:32:56.939Z,78.90
2017-10-14T06:35:23.160Z,78.80
2017-10-14T06:37:49.357Z,78.90
2017-10-14T06:40:15.625Z,79.10
2017-10-14T06:42:41.809Z,79.40
2017-10-14T06:45:08.030Z,79.70
2017-10-14T06:47:34.597Z,79.80
2017-10-14T06:50:00.853Z,79.80
2017-10-14T06:52:27.031Z,79.90
2017-10-14T06:54:53.643Z,80.30
2017-10-14T06:57:19.868Z,80.30
2017-10-14T06:59:46.104Z,80.40
2017-10-14T07:02:12.310Z,80.60
2017-10-14T07:04:38.503Z,80.40
2017-10-14T07:07:04.718Z,80.90
2017-10-14T07:09:30.947Z,81.20
2017-10-14T07:11:57.196Z,80.90
2017-10-14T07:14:24.321Z,80.70
2017-10-14T07:16:50.558Z,80.80
2017-10-14T07:19:17.775Z,80.30
2017-10-14T07:21:44.378Z,79.40
2017-10-14T07:24:11.668Z,79.40
2017-10-14T07:26:38.255Z,79.30
2017-10-14T07:29:04.473Z,79.30
2017-10-14T07:31:30.693Z,79.40
2017-10-14T07:33:56.907Z,79.30
2017-10-14T07:36:23.122Z,79.60
2017-10-14T07:38:49.436Z,79.50
2017-10-14T07:41:16.047Z,79.50
2017-10-14T07:43:42.239Z,79.50
2017-10-14T07:46:08.466Z,79.40
2017-10-14T07:48:34.758Z,79.40
2017-10-14T07:51:01.672Z,79.50
2017-10-14T07:53:27.907Z,79.20
2017-10-14T07:55:54.176Z,78.70
2017-10-14T07:58:20.378Z,79.00
2017-10-14T08:00:46.570Z,79.80
2017-10-14T08:03:13.319Z,79.80
2017-10-14T08:05:39.576Z,79.30
2017-10-14T08:08:05.791Z,78.80
2017-10-14T08:10:31.983Z,78.60
2017-10-14T08:12:58.255Z,78.30
2017-10-14T08:15:24.487Z,78.10
2017-10-14T08:17:50.882Z,78.20
2017-10-14T08:20:17.125Z,79.60
2017-10-14T08:22:43.353Z,78.70
2017-10-14T08:25:10.185Z,79.20
2017-10-14T08:27:37.019Z,78.90
2017-10-14T08:30:03.237Z,79.10
2017-10-14T08:32:29.472Z,79.00
2017-10-14T08:34:55.733Z,79.10
2017-10-14T08:37:21.944Z,79.40
2017-10-14T08:39:48.936Z,78.80
2017-10-14T08:42:15.546Z,78.70
2017-10-14T08:44:41.747Z,78.70
2017-10-14T08:47:07.962Z,79.50
2017-10-14T08:49:34.179Z,79.00
2017-10-14T08:52:00.437Z,78.70
2017-10-14T08:54:26.720Z,78.90
2017-10-14T08:56:53.354Z,78.70
2017-10-14T08:59:19.582Z,78.70
2017-10-14T09:01:46.189Z,77.90
2017-10-14T09:04:12.455Z,77.90
2017-10-14T09:06:38.710Z,77.80
2017-10-14T09:09:05.912Z,77.00
2017-10-14T09:11:32.150Z,77.70
2017-10-14T09:13:58.382Z,76.20
2017-10-14T09:16:24.599Z,76.40
2017-10-14T09:18:50.801Z,76.60
2017-10-14T09:21:17.044Z,76.30
2017-10-14T09:23:43.246Z,76.60
2017-10-14T09:26:09.501Z,75.60
2017-10-14T09:28:35.760Z,76.10
2017-10-14T09:31:01.975Z,76.60
2017-10-14T09:33:28.263Z,77.00
2017-10-14T09:35:54.466Z,75.70
2017-10-14T09:38:20.703Z,74.90
2017-10-14T09:40:46.944Z,73.90
2017-10-14T09:43:13.155Z,74.70
2017-10-14T09:45:39.426Z,73.50
2017-10-14T09:48:05.653Z,73.10
2017-10-14T09:50:31.962Z,73.60
2017-10-14T09:52:58.186Z,73.10
2017-10-14T09:55:24.434Z,72.10
2017-10-14T09:57:50.660Z,72.90
2017-10-14T10:00:17.209Z,70.30
2017-10-14T10:02:43.401Z,68.60
2017-10-14T10:05:09.644Z,66.50
2017-10-14T10:07:35.887Z,65.40
2017-10-14T10:10:02.681Z,61.30
2017-10-14T10:12:28.899Z,57.30
2017-10-14T10:14:55.166Z,51.00
2017-10-14T10:17:21.426Z,45.90
2017-10-14T10:19:47.653Z,40.80
2017-10-14T10:22:13.896Z,34.30
2017-10-14T10:24:40.500Z,27.80
2017-10-14T10:27:06.720Z,27.80
2017-10-14T10:29:32.948Z,26.40
2017-10-14T10:31:59.160Z,24.90
2017-10-14T10:34:25.845Z,22.90
2017-10-14T10:36:52.438Z,20.20
2017-10-14T10:39:18.635Z,20.30
2017-10-14T10:41:44.921Z,20.40
2017-10-14T10:44:11.131Z,20.90
2017-10-14T10:46:37.430Z,20.60
2017-10-14T10:49:03.669Z,19.00
2017-10-14T10:51:29.934Z,18.20
2017-10-14T10:53:56.199Z,17.50
2017-10-14T10:56:22.580Z,17.40
2017-10-14T10:58:48.807Z,17.10
2017-10-14T11:01:15.071Z,17.40
2017-10-14T11:03:41.340Z,17.30
2017-10-14T11:06:07.743Z,17.40
2017-10-14T11:08:35.747Z,16.60
2017-10-14T11:11:07.165Z,16.50
2017-10-14T11:13:35.149Z,16.30
2017-10-14T11:16:01.404Z,16.10
2017-10-14T11:18:28.788Z,15.90
2017-10-14T11:20:55.081Z,15.90
2017-10-14T11:23:21.282Z,15.20
2017-10-14T11:25:48.799Z,14.00
2017-10-14T11:28:15.023Z,14.00
2017-10-14T11:30:42.074Z,14.30
2017-10-14T11:33:08.276Z,14.30
2017-10-14T11:35:34.556Z,13.90
2017-10-14T11:38:01.428Z,14.80
2017-10-14T11:40:29.111Z,14.80
2017-10-14T11:42:55.334Z,14.60
2017-10-14T11:45:21.546Z,14.60
2017-10-14T11:47:47.864Z,14.20
2017-10-14T11:50:14.458Z,14.30
2017-10-14T11:52:40.774Z,14.30
2017-10-14T11:55:07.032Z,14.30
2017-10-14T11:57:33.935Z,13.30
2017-10-14T12:00:00.228Z,13.20
2017-10-14T12:02:26.544Z,13.90
2017-10-14T12:04:52.838Z,13.80
2017-10-14T12:07:19.089Z,13.70
2017-10-14T12:09:45.328Z,13.90
2017-10-14T12:12:11.534Z,14.20
2017-10-14T12:14:38.703Z,14.40
2017-10-14T12:17:04.918Z,14.90
2017-10-14T12:19:31.110Z,15.20
2017-10-14T12:21:57.338Z,15.90
2017-10-14T12:24:23.533Z,16.20
2017-10-14T12:26:50.969Z,15.90
2017-10-14T12:29:17.175Z,15.90
2017-10-14T12:31:43.383Z,15.60
2017-10-14T12:34:09.646Z,16.20
2017-10-14T12:36:35.845Z,17.30
2017-10-14T12:39:02.122Z,18.60
2017-10-14T12:41:28.722Z,18.30
2017-10-14T12:43:54.962Z,18.30
2017-10-14T12:46:21.211Z,17.30
2017-10-14T12:48:47.808Z,16.70
2017-10-14T12:51:14.053Z,16.70
2017-10-14T12:53:40.271Z,16.30
2017-10-14T12:56:06.522Z,16.30
2017-10-14T12:58:32.780Z,15.80
2017-10-14T13:00:59.025Z,15.50
2017-10-14T13:03:25.255Z,15.20
2017-10-14T13:05:51.474Z,15.10
2017-10-14T13:08:17.725Z,15.00
2017-10-14T13:10:43.960Z,14.90
2017-10-14T13:13:10.234Z,14.30
2017-10-14T13:15:36.422Z,14.50
2017-10-14T13:18:02.653Z,14.40
2017-10-14T13:20:28.852Z,14.40
2017-10-14T13:22:55.092Z,14.50
2017-10-14T13:25:21.311Z,14.40
2017-10-14T13:27:47.521Z,14.50
2017-10-14T13:30:13.880Z,14.40
2017-10-14T13:32:40.123Z,14.40
2017-10-14T13:35:06.364Z,14.00
2017-10-14T13:37:32.584Z,13.70
2017-10-14T13:39:58.859Z,13.50
2017-10-14T13:42:25.168Z,14.20
2017-10-14T13:44:51.779Z,14.00
2017-10-14T13:47:18.027Z,14.00
2017-10-14T13:49:44.229Z,14.00
2017-10-14T13:52:10.487Z,14.10
2017-10-14T13:54:36.707Z,14.10
2017-10-14T13:57:02.952Z,13.90
2017-10-14T13:59:29.516Z,13.80
2017-10-14T14:01:55.759Z,13.70
2017-10-14T14:04:22.018Z,13.50
2017-10-14T14:06:48.248Z,13.60
2017-10-14T14:09:14.506Z,13.50
2017-10-14T14:11:40.748Z,14.10
2017-10-14T14:14:07.021Z,14.00
2017-10-14T14:16:33.215Z,14.20
2017-10-14T14:18:59.458Z,14.40
2017-10-14T14:21:25.674Z,14.50
2017-10-14T14:23:52.857Z,14.30
2017-10-14T14:26:19.064Z,14.60
2017-10-14T14:28:45.294Z,14.80
2017-10-14T14:31:11.509Z,14.80
2017-10-14T14:33:37.738Z,16.00
2017-10-14T14:36:04.001Z,17.20
2017-10-14T14:38:30.236Z,19.40
2017-10-14T14:40:56.475Z,21.20
2017-10-14T14:43:22.691Z,23.60
2017-10-14T14:45:49.799Z,26.10
2017-10-14T14:48:16.056Z,29.00
2017-10-14T14:50:42.249Z,32.00
2017-10-14T14:53:08.516Z,34.90
2017-10-14T14:55:34.715Z,35.00
2017-10-14T14:58:00.945Z,38.00
2017-10-14T15:00:27.164Z,39.80
2017-10-14T15:02:54.286Z,40.80
2017-10-14T15:05:20.900Z,44.20
2017-10-14T15:07:47.104Z,44.30
2017-10-14T15:10:13.334Z,46.00
2017-10-14T15:12:39.543Z,47.30
2017-10-14T15:15:05.799Z,46.60
2017-10-14T15:17:32.008Z,48.30
2017-10-14T15:19:58.658Z,49.70
2017-10-14T15:22:24.871Z,50.40
2017-10-14T15:24:51.068Z,51.50
2017-10-14T15:27:18.549Z,52.40
2017-10-14T15:29:44.755Z,53.40
2017-10-14T15:32:10.938Z,53.30
2017-10-14T15:34:37.258Z,54.10
2017-10-14T15:37:03.482Z,55.00
2017-10-14T15:39:29.716Z,55.30
2017-10-14T15:42:09.031Z,56.10
2017-10-14T15:44:35.247Z,57.30
2017-10-14T15:47:01.499Z,57.70
2017-10-14T15:49:27.710Z,58.20
2017-10-14T15:51:53.942Z,58.30
2017-10-14T15:54:20.140Z,59.20
2017-10-14T15:56:46.431Z,59.70
2017-10-14T15:59:12.681Z,60.10
2017-10-14T16:01:39.287Z,61.00
2017-10-14T16:04:05.510Z,61.00
2017-10-14T16:06:31.708Z,61.70
2017-10-14T16:08:57.944Z,62.20
2017-10-14T16:11:24.165Z,62.20
2017-10-14T16:13:50.359Z,62.50
2017-10-14T16:16:16.587Z,63.30
2017-10-14T16:18:42.795Z,63.70
2017-10-14T16:21:09.029Z,64.50
2017-10-14T16:23:35.306Z,64.60
2017-10-14T16:26:01.570Z,65.20
2017-10-14T16:28:27.774Z,65.70
2017-10-14T16:30:54.026Z,66.00
2017-10-14T16:33:20.237Z,66.40
2017-10-14T16:35:46.480Z,66.80
2017-10-14T16:38:12.656Z,67.20
2017-10-14T16:40:39.715Z,67.50
2017-10-14T16:43:06.021Z,67.80
2017-10-14T16:45:32.274Z,68.50
2017-10-14T16:47:58.533Z,68.70
2017-10-14T16:50:24.746Z,69.10
2017-10-14T16:52:50.981Z,69.50
2017-10-14T16:55:17.499Z,69.80
2017-10-14T16:57:43.717Z,70.20
2017-10-14T17:00:09.979Z,70.40
2017-10-14T17:02:36.241Z,70.60
2017-10-14T17:05:02.860Z,71.10
2017-10-14T17:07:29.141Z,71.10
2017-10-14T17:09:55.400Z,71.50
2017-10-14T17:12:21.621Z,71.80
2017-10-14T17:14:47.825Z,72.10
2017-10-14T17:17:14.045Z,72.20
2017-10-14T17:19:40.260Z,72.40
2017-10-14T17:22:06.884Z,72.50
2017-10-14T17:24:33.505Z,72.80
2017-10-14T17:27:00.286Z,72.80
2017-10-14T17:29:26.531Z,72.80
2017-10-14T17:31:52.723Z,73.10
2017-10-14T17:34:18.959Z,73.70
2017-10-14T17:36:45.216Z,73.90
2017-10-14T17:39:11.491Z,73.60
2017-10-14T17:41:37.698Z,73.70
2017-10-14T17:44:03.943Z,74.20
2017-10-14T17:46:30.171Z,74.20
2017-10-14T17:48:56.410Z,74.40
2017-10-14T17:51:23.015Z,74.30
2017-10-14T17:53:49.242Z,74.30
2017-10-14T17:56:15.532Z,74.40
2017-10-14T17:58:41.753Z,74.60
2017-10-14T18:01:08.011Z,74.60
2017-10-14T18:03:34.242Z,74.70
2017-10-14T18:06:01.045Z,74.50
2017-10-14T18:08:27.645Z,74.30
2017-10-14T18:10:53.856Z,74.30
2017-10-14T18:13:20.101Z,74.40
2017-10-14T18:15:46.320Z,74.30
2017-10-14T18:18:12.552Z,74.50
2017-10-14T18:20:38.771Z,74.90
2017-10-14T18:23:05.803Z,75.20
2017-10-14T18:25:32.021Z,75.10
2017-10-14T18:27:58.232Z,75.10
2017-10-14T18:30:24.491Z,75.40
2017-10-14T18:32:51.090Z,75.10
2017-10-14T18:35:17.379Z,74.90
2017-10-14T18:37:43.631Z,74.80
2017-10-14T18:40:09.888Z,74.90
2017-10-14T18:42:36.135Z,75.00
2017-10-14T18:45:02.391Z,75.40
2017-10-14T18:47:28.609Z,76.00
2017-10-14T18:49:55.218Z,76.20
2017-10-14T18:52:21.436Z,76.00
2017-10-14T18:54:47.684Z,75.80
2017-10-14T18:57:14.742Z,75.50
2017-10-14T18:59:41.019Z,75.70
2017-10-14T19:02:07.275Z,75.40
2017-10-14T19:04:33.514Z,75.20
2017-10-14T19:07:00.872Z,75.20
2017-10-14T19:09:27.114Z,75.30
2017-10-14T19:11:53.413Z,75.60
2017-10-14T19:14:19.644Z,76.10
2017-10-14T19:16:45.882Z,76.10
2017-10-14T19:19:12.493Z,76.10
2017-10-14T19:21:38.774Z,75.50
2017-10-14T19:24:06.027Z,75.80
2017-10-14T19:26:32.548Z,75.80
2017-10-14T19:28:58.886Z,76.00
2017-10-14T19:31:25.134Z,76.30
2017-10-14T19:33:51.361Z,76.40
2017-10-14T19:36:17.610Z,76.20
2017-10-14T19:38:44.812Z,76.50
2017-10-14T19:41:11.048Z,76.60
2017-10-14T19:43:37.254Z,76.60
2017-10-14T19:46:05.006Z,76.80
2017-10-14T19:48:31.255Z,76.90
2017-10-14T19:50:57.575Z,76.80
2017-10-14T19:53:23.839Z,76.50
2017-10-14T19:55:50.159Z,76.30
2017-10-14T19:58:16.969Z,76.40
2017-10-14T20:00:43.427Z,76.50
2017-10-14T20:03:09.657Z,76.70
2017-10-14T20:05:36.756Z,77.00
2017-10-14T20:08:03.074Z,77.90
2017-10-14T20:10:29.498Z,77.60
2017-10-14T20:12:55.736Z,77.00
2017-10-14T20:15:22.962Z,76.60
2017-10-14T20:17:50.431Z,76.60
2017-10-14T20:20:16.845Z,76.80
2017-10-14T20:22:43.125Z,76.60
2017-10-14T20:25:09.807Z,76.60
2017-10-14T20:27:36.096Z,76.60
2017-10-14T20:30:04.968Z,76.70
2017-10-14T20:32:31.254Z,76.60
2017-10-14T20:34:57.489Z,76.60
2017-10-14T20:37:23.832Z,76.80
2017-10-14T20:39:50.130Z,76.60
2017-10-14T20:42:16.368Z,76.30
2017-10-14T20:44:42.626Z,76.20
2017-10-14T20:47:09.768Z,76.50
2017-10-14T20:49:36.010Z,76.70
2017-10-14T20:52:02.321Z,77.00
2017-10-14T20:54:28.568Z,77.00
2017-10-14T20:56:54.803Z,77.00
2017-10-14T20:59:21.075Z,76.90
2017-10-14T21:01:47.416Z,76.80
2017-10-14T21:04:13.657Z,76.80
2017-10-14T21:06:39.856Z,76.90
2017-10-14T21:09:06.114Z,77.10
2017-10-14T21:11:32.369Z,77.00
2017-10-14T21:13:58.594Z,77.10
2017-10-14T21:16:24.832Z,77.20
2017-10-14T21:18:51.059Z,77.20
2017-10-14T21:21:17.324Z,77.40
2017-10-14T21:23:43.550Z,77.60
2017-10-14T21:26:09.787Z,77.80
2017-10-14T21:28:36.018Z,77.60
2017-10-14T21:31:02.232Z,77.50
2017-10-14T21:33:28.485Z,77.50
2017-10-14T21:35:54.731Z,77.50
2017-10-14T21:38:21.027Z,77.50
2017-10-14T21:40:47.261Z,77.80
2017-10-14T21:43:13.490Z,77.70
2017-10-14T21:45:39.734Z,77.50
2017-10-14T21:48:05.967Z,77.30
2017-10-14T21:50:32.219Z,77.40
2017-10-14T21:52:58.536Z,77.60
2017-10-14T21:55:25.186Z,77.60
2017-10-14T21:57:51.405Z,77.60
2017-10-14T22:00:17.676Z,77.70
2017-10-14T22:02:44.252Z,77.30
2017-10-14T22:05:10.496Z,77.30
2017-10-14T22:07:36.721Z,77.10
2017-10-14T22:10:02.965Z,77.10
2017-10-14T22:12:29.243Z,77.30
2017-10-14T22:14:55.450Z,77.30
2017-10-14T22:17:21.716Z,77.40
2017-10-14T22:19:47.925Z,77.40
2017-10-14T22:22:14.201Z,77.40
2017-10-14T22:24:40.444Z,77.50
2017-10-14T22:27:07.077Z,77.20
2017-10-14T22:29:33.327Z,77.20
2017-10-14T22:31:59.913Z,77.30
2017-10-14T22:34:26.120Z,77.30
2017-10-14T22:36:52.337Z,77.20
2017-10-14T22:39:18.581Z,77.50
2017-10-14T22:41:44.827Z,77.40
2017-10-14T22:44:11.075Z,77.40
2017-10-14T22:46:37.810Z,77.40
2017-10-14T22:49:04.012Z,77.40
2017-10-14T22:51:30.230Z,77.60
2017-10-14T22:53:56.414Z,77.40
2017-10-14T22:56:22.639Z,78.20
2017-10-14T22:58:48.814Z,78.20
2017-10-14T23:01:15.078Z,78.30
2017-10-14T23:03:41.271Z,78.50
2017-10-14T23:06:07.504Z,78.30
2017-10-14T23:08:33.728Z,78.20
2017-10-14T23:10:59.964Z,77.80
2017-10-14T23:13:26.208Z,77.70
2017-10-14T23:15:52.406Z,77.80
2017-10-14T23:18:18.614Z,78.10
2017-10-14T23:20:44.813Z,78.70
2017-10-14T23:23:11.027Z,78.70
2017-10-14T23:25:37.250Z,78.60
2017-10-14T23:28:03.473Z,78.60
2017-10-14T23:30:29.698Z,78.60
2017-10-14T23:32:55.887Z,78.30
2017-10-14T23:35:22.099Z,78.10
2017-10-14T23:37:48.710Z,78.20
2017-10-14T23:40:14.883Z,78.20
2017-10-14T23:42:41.108Z,78.40
2017-10-14T23:45:07.299Z,78.30
2017-10-14T23:47:33.521Z,78.20
2017-10-14T23:49:59.744Z,78.30
2017-10-14T23:52:25.933Z,78.20
2017-10-14T23:54:52.130Z,78.20
2017-10-14T23:57:18.712Z,78.30
2017-10-14T23:59:44.917Z,78.30
